Time,TemperatureF,DewpointF,PressureIn,WindDirection,WindDirectionDegrees,WindSpeedMPH,WindSpeedGustMPH,Humidity,HourlyPrecipIn,Conditions,Clouds,dailyrainin,SoftwareType,DateUTC
2014-03-17 00:00:00,57.5,41.0,30.08,SW,225,0.0,0.0,54,0.00,,---,0.00,VWS V14.01,2014-03-17 07:00:00,
2014-03-17 00:03:00,56.6,36.0,30.07,WSW,240,0.0,-999.0,47,-99.99,,,0.00,weatherlink.com 1.10,2014-03-17 07:03:00,
2014-03-17 00:18:00,57.1,36.0,30.06,West,271,0.0,-999.0,45,-99.99,,,0.00,weatherlink.com 1.10,2014-03-17 07:18:00,
2014-03-17 00:30:00,56.0,37.6,30.08,SW,225,0.0,1.0,50,0.00,,---,0.00,VWS V14.01,2014-03-17 07:30:00,
2014-03-17 00:33:00,56.0,36.0,30.06,West,271,0.0,-999.0,48,-99.99,,,0.00,weatherlink.com 1.10,2014-03-17 07:33:00,
2014-03-17 00:48:00,55.8,36.0,30.05,West,271,0.0,-999.0,48,-99.99,,,0.00,weatherlink.com 1.10,2014-03-17 07:48:00,
2014-03-17 01:00:00,56.6,36.6,30.07,SW,225,0.0,0.0,47,0.00,,---,0.00,VWS V14.01,2014-03-17 08:00:00,
2014-03-17 01:03:00,56.3,35.0,30.05,West,271,0.0,-999.0,45,-99.99,,,0.00,weatherlink.com 1.10,2014-03-17 08:03:00,
2014-03-17 01:19:00,57.0,35.0,30.04,West,276,0.0,-999.0,44,-99.99,,,0.00,weatherlink.com 1.10,2014-03-17 08:19:00,
2014-03-17 01:30:00,56.4,36.4,30.06,West,270,0.0,1.0,47,0.00,,---,0.00,VWS V14.01,2014-03-17 08:30:00,
2014-03-17 01:34:00,57.7,35.0,30.04,West,276,0.0,-999.0,43,-99.99,,,0.00,weatherlink.com 1.10,2014-03-17 08:34:00,
2014-03-17 01:49:00,57.3,35.0,30.03,West,276,0.0,-999.0,44,-99.99,,,0.00,weatherlink.com 1.10,2014-03-17 08:49:00,
2014-03-17 02:00:00,56.1,35.6,30.05,West,270,0.0,0.0,46,0.00,,---,0.00,VWS V14.01,2014-03-17 09:00:00,
2014-03-17 02:04:00,57.3,35.0,30.02,West,277,0.0,-999.0,44,-99.99,,,0.00,weatherlink.com 1.10,2014-03-17 09:04:00,
2014-03-17 02:19:00,55.1,36.0,30.02,West,276,0.0,-999.0,48,-99.99,,,0.00,weatherlink.com 1.10,2014-03-17 09:19:00,
2014-03-17 02:30:00,57.8,35.5,30.04,West,270,0.0,4.0,43,0.00,,---,0.00,VWS V14.01,2014-03-17 09:30:00,
2014-03-17 02:34:00,56.1,35.0,30.01,West,276,0.0,-999.0,45,-99.99,,,0.00,weatherlink.com 1.10,2014-03-17 09:34:00,
2014-03-17 02:49:00,56.8,35.0,30.01,West,279,0.0,-999.0,44,-99.99,,,0.00,weatherlink.com 1.10,2014-03-17 09:49:00,
2014-03-17 03:00:00,57.5,35.8,30.03,West,270,0.0,0.0,44,0.00,,---,0.00,VWS V14.01,2014-03-17 10:00:00,
2014-03-17 03:04:00,55.7,36.0,30.01,NNE,28,0.0,-999.0,48,-99.99,,,0.00,weatherlink.com 1.10,2014-03-17 10:04:00,
2014-03-17 03:19:00,54.4,35.0,30.00,NNE,28,0.0,-999.0,48,-99.99,,,0.00,weatherlink.com 1.10,2014-03-17 10:19:00,
2014-03-17 03:30:00,55.6,35.2,30.01,West,270,0.0,0.0,46,0.00,,---,0.00,VWS V14.01,2014-03-17 10:30:00,
2014-03-17 03:34:00,53.2,35.0,30.00,NNE,28,0.0,-999.0,50,-99.99,,,0.00,weatherlink.com 1.10,2014-03-17 10:34:00,
2014-03-17 03:49:00,53.4,35.0,29.99,NNE,28,0.0,-999.0,50,-99.99,,,0.00,weatherlink.com 1.10,2014-03-17 10:49:00,
2014-03-17 04:00:00,56.0,35.5,30.01,West,270,0.0,0.0,46,0.00,,---,0.00,VWS V14.01,2014-03-17 11:00:00,
2014-03-17 04:04:00,53.3,35.0,29.98,NNE,28,0.0,-999.0,50,-99.99,,,0.00,weatherlink.com 1.10,2014-03-17 11:04:00,
2014-03-17 04:19:00,55.3,35.0,29.98,NNE,29,0.0,-999.0,47,-99.99,,,0.00,weatherlink.com 1.10,2014-03-17 11:19:00,
2014-03-17 04:30:00,53.3,35.7,30.00,West,270,0.0,0.0,51,0.00,,---,0.00,VWS V14.01,2014-03-17 11:30:00,
2014-03-17 04:34:00,52.8,35.0,29.97,NNE,29,0.0,-999.0,51,-99.99,,,0.00,weatherlink.com 1.10,2014-03-17 11:34:00,
2014-03-17 04:49:00,51.1,35.0,29.97,NNE,29,0.0,-999.0,54,-99.99,,,0.00,weatherlink.com 1.10,2014-03-17 11:49:00,
2014-03-17 05:00:00,53.3,35.2,29.98,West,270,0.0,0.0,50,0.00,,---,0.00,VWS V14.01,2014-03-17 12:00:00,
2014-03-17 05:04:00,50.3,34.0,29.96,NNE,29,0.0,-999.0,55,-99.99,,,0.00,weatherlink.com 1.10,2014-03-17 12:04:00,
2014-03-17 05:19:00,49.8,35.0,29.96,NNE,29,0.0,-999.0,57,-99.99,,,0.00,weatherlink.com 1.10,2014-03-17 12:19:00,
2014-03-17 05:30:00,53.8,35.6,29.97,NNE,22,0.0,2.0,50,0.00,,---,0.00,VWS V14.01,2014-03-17 12:30:00,
2014-03-17 05:34:00,49.4,35.0,29.95,NNE,29,0.0,-999.0,57,-99.99,,,0.00,weatherlink.com 1.10,2014-03-17 12:34:00,
2014-03-17 05:49:00,49.6,35.0,29.95,NNE,29,0.0,-999.0,57,-99.99,,,0.00,weatherlink.com 1.10,2014-03-17 12:49:00,
2014-03-17 06:00:00,50.4,35.3,29.96,NNE,22,0.0,0.0,56,0.00,,---,0.00,VWS V14.01,2014-03-17 13:00:00,
2014-03-17 06:04:00,50.1,34.0,29.96,NNE,29,0.0,-999.0,55,-99.99,,,0.00,weatherlink.com 1.10,2014-03-17 13:04:00,
2014-03-17 06:19:00,50.3,34.0,29.97,NNE,29,0.0,-999.0,55,-99.99,,,0.00,weatherlink.com 1.10,2014-03-17 13:19:00,
2014-03-17 06:30:00,49.2,35.1,29.95,NNE,22,0.0,0.0,58,0.00,,---,0.00,VWS V14.01,2014-03-17 13:30:00,
2014-03-17 06:34:00,49.7,34.0,29.96,NNE,29,0.0,-999.0,56,-99.99,,,0.00,weatherlink.com 1.10,2014-03-17 13:34:00,
2014-03-17 06:49:00,49.7,35.0,29.96,WNW,295,4.0,-999.0,57,-99.99,,,0.00,weatherlink.com 1.10,2014-03-17 13:49:00,
2014-03-17 07:00:00,49.7,35.1,29.95,NNE,22,0.0,1.0,57,0.00,,---,0.00,VWS V14.01,2014-03-17 14:00:00,
2014-03-17 07:04:00,50.1,34.0,29.96,WNW,295,0.0,-999.0,55,-99.99,,,0.00,weatherlink.com 1.10,2014-03-17 14:04:00,
2014-03-17 07:19:00,49.3,35.0,29.96,WNW,295,0.0,-999.0,58,-99.99,,,0.00,weatherlink.com 1.10,2014-03-17 14:19:00,
2014-03-17 07:30:00,49.9,34.8,29.96,NNE,22,0.0,0.0,56,0.00,,---,0.00,VWS V14.01,2014-03-17 14:30:00,
2014-03-17 07:34:00,49.6,35.0,29.96,WNW,295,0.0,-999.0,58,-99.99,,,0.00,weatherlink.com 1.10,2014-03-17 14:34:00,
2014-03-17 07:49:00,50.2,36.0,29.97,WNW,295,0.0,-999.0,58,-99.99,,,0.00,weatherlink.com 1.10,2014-03-17 14:49:00,
2014-03-17 08:00:00,50.2,34.7,29.96,WNW,292,0.0,5.0,55,0.00,,---,0.00,VWS V14.01,2014-03-17 15:00:00,
2014-03-17 08:04:00,51.7,37.0,29.96,WNW,295,0.0,-999.0,58,-99.99,,,0.00,weatherlink.com 1.10,2014-03-17 15:04:00,
2014-03-17 08:21:00,56.3,38.0,29.95,North,5,0.0,-999.0,50,-99.99,,,0.00,weatherlink.com 1.10,2014-03-17 15:21:00,
2014-03-17 08:30:00,49.5,35.3,29.97,WNW,292,0.0,0.0,58,0.00,,---,0.00,VWS V14.01,2014-03-17 15:30:00,
2014-03-17 08:37:00,58.4,39.0,29.95,NNE,13,0.0,-999.0,49,-99.99,,,0.00,weatherlink.com 1.10,2014-03-17 15:37:00,
2014-03-17 08:54:00,62.8,40.0,29.94,ENE,71,0.0,-999.0,43,-99.99,,,0.00,weatherlink.com 1.10,2014-03-17 15:54:00,
2014-03-17 09:00:00,63.6,40.7,29.94,ENE,65,0.0,4.0,43,0.00,,---,0.00,VWS V15.00,2014-03-17 16:00:00,
2014-03-17 09:11:00,64.6,40.0,29.94,ENE,62,1.0,-999.0,41,-99.99,,,0.00,weatherlink.com 1.10,2014-03-17 16:11:00,
2014-03-17 09:28:00,67.5,42.0,29.94,ENE,62,0.0,-999.0,40,-99.99,,,0.00,weatherlink.com 1.10,2014-03-17 16:28:00,
2014-03-17 09:30:00,57.6,38.1,29.95,North,360,0.0,5.0,48,0.00,,---,0.00,VWS V14.01,2014-03-17 16:30:00,
2014-03-17 09:45:00,70.6,43.0,29.94,ENE,62,0.0,-999.0,37,-99.99,,,0.00,weatherlink.com 1.10,2014-03-17 16:45:00,
2014-03-17 10:00:00,63.6,40.7,29.94,ENE,65,0.0,4.0,43,0.00,,---,0.00,VWS V14.01,2014-03-17 17:00:00,
2014-03-17 10:01:00,70.5,41.0,29.94,ENE,61,0.0,-999.0,34,-99.99,,,0.00,weatherlink.com 1.10,2014-03-17 17:01:00,
2014-03-17 10:19:00,72.4,41.0,29.94,SE,138,0.0,-999.0,32,-99.99,,,0.00,weatherlink.com 1.10,2014-03-17 17:19:00,
2014-03-17 10:30:00,67.7,42.5,29.94,ENE,61,0.0,4.0,40,0.00,,---,0.00,VWS V14.01,2014-03-17 17:30:00,
2014-03-17 10:52:00,71.2,45.0,29.93,South,190,0.0,-999.0,39,-99.99,,,0.00,weatherlink.com 1.10,2014-03-17 17:52:00,
2014-03-17 11:00:00,70.4,41.5,29.94,ENE,62,0.0,2.0,35,0.00,,---,0.00,VWS V14.01,2014-03-17 18:00:00,
2014-03-17 11:09:00,71.5,44.0,29.92,SW,228,8.0,-999.0,38,-99.99,,,0.00,weatherlink.com 1.10,2014-03-17 18:09:00,
2014-03-17 11:26:00,71.7,45.0,29.92,SW,226,9.0,-999.0,38,-99.99,,,0.00,weatherlink.com 1.10,2014-03-17 18:26:00,
2014-03-17 11:30:00,70.9,41.9,29.93,SW,219,6.0,10.0,35,0.00,,---,0.00,VWS V14.01,2014-03-17 18:30:00,
2014-03-17 11:42:00,72.8,45.0,29.91,SSW,203,13.0,-999.0,37,-99.99,,,0.00,weatherlink.com 1.10,2014-03-17 18:42:00,
2014-03-17 12:00:00,73.8,47.0,29.90,SW,224,4.0,-999.0,38,-99.99,,,0.00,weatherlink.com 1.10,2014-03-17 19:00:00,
2014-03-17 12:17:00,73.6,48.0,29.89,SSW,212,7.0,-999.0,40,-99.99,,,0.00,weatherlink.com 1.10,2014-03-17 19:17:00,
2014-03-17 12:30:00,72.2,45.2,29.91,SW,236,8.0,14.0,38,0.00,,---,0.00,VWS V14.01,2014-03-17 19:30:00,
2014-03-17 12:33:00,72.7,49.0,29.89,WSW,240,6.0,-999.0,43,-99.99,,,0.00,weatherlink.com 1.10,2014-03-17 19:33:00,
2014-03-17 12:51:00,73.0,50.0,29.87,SSW,202,6.0,-999.0,45,-99.99,,,0.00,weatherlink.com 1.10,2014-03-17 19:51:00,
2014-03-17 13:00:00,73.9,46.7,29.90,SSW,210,0.0,19.0,38,0.00,,---,0.00,VWS V14.01,2014-03-17 20:00:00,
2014-03-17 13:07:00,72.3,49.0,29.87,SW,234,9.0,-999.0,44,-99.99,,,0.00,weatherlink.com 1.10,2014-03-17 20:07:00,
2014-03-17 13:24:00,71.9,49.0,29.85,SW,217,0.0,-999.0,45,-99.99,,,0.00,weatherlink.com 1.10,2014-03-17 20:24:00,
2014-03-17 13:30:00,72.9,50.3,29.89,WSW,248,7.0,20.0,45,0.00,,---,0.00,VWS V14.01,2014-03-17 20:30:00,
2014-03-17 13:40:00,72.9,50.0,29.84,SSW,206,3.0,-999.0,44,-99.99,,,0.00,weatherlink.com 1.10,2014-03-17 20:40:00,
2014-03-17 13:57:00,74.1,49.0,29.82,West,281,0.0,-999.0,41,-99.99,,,0.00,weatherlink.com 1.10,2014-03-17 20:57:00,
2014-03-17 14:00:00,72.1,49.6,29.87,WSW,237,11.0,17.0,45,0.00,,---,0.00,VWS V14.01,2014-03-17 21:00:00,
2014-03-17 14:14:00,75.1,50.0,29.80,SW,234,6.0,-999.0,42,-99.99,,,0.00,weatherlink.com 1.10,2014-03-17 21:14:00,
2014-03-17 14:30:00,72.1,49.6,29.85,SSW,211,3.0,19.0,45,0.00,,---,0.00,VWS V14.01,2014-03-17 21:30:00,
2014-03-17 14:31:00,76.0,52.0,29.79,WSW,244,0.0,-999.0,43,-99.99,,,0.00,weatherlink.com 1.10,2014-03-17 21:31:00,
2014-03-17 14:48:00,76.8,49.0,29.78,WSW,237,0.0,-999.0,38,-99.99,,,0.00,weatherlink.com 1.10,2014-03-17 21:48:00,
2014-03-17 15:00:00,74.3,49.8,29.82,WSW,248,7.0,15.0,42,0.00,,---,0.00,VWS V14.01,2014-03-17 22:00:00,
2014-03-17 15:05:00,77.1,50.0,29.78,West,273,1.0,-999.0,39,-99.99,,,0.00,weatherlink.com 1.10,2014-03-17 22:05:00,
2014-03-17 15:21:00,76.7,49.0,29.77,South,188,0.0,-999.0,38,-99.99,,,0.00,weatherlink.com 1.10,2014-03-17 22:21:00,
2014-03-17 15:30:00,76.0,51.9,29.79,WSW,244,2.0,17.0,43,0.00,,---,0.00,VWS V14.01,2014-03-17 22:30:00,
2014-03-17 15:38:00,76.8,49.0,29.77,SW,215,6.0,-999.0,38,-99.99,,,0.00,weatherlink.com 1.10,2014-03-17 22:38:00,
2014-03-17 15:55:00,77.8,50.0,29.76,South,183,2.0,-999.0,38,-99.99,,,0.00,weatherlink.com 1.10,2014-03-17 22:55:00,
2014-03-17 16:00:00,77.7,50.1,29.78,SW,225,0.0,12.0,38,0.00,,---,0.00,VWS V14.01,2014-03-17 23:00:00,
2014-03-17 16:12:00,77.5,51.0,29.76,ENE,61,1.0,-999.0,39,-99.99,,,0.00,weatherlink.com 1.10,2014-03-17 23:12:00,
2014-03-17 16:29:00,76.6,50.0,29.75,ENE,60,2.0,-999.0,39,-99.99,,,0.00,weatherlink.com 1.10,2014-03-17 23:29:00,
2014-03-17 16:30:00,77.0,50.2,29.77,South,190,0.0,10.0,39,0.00,,---,0.00,VWS V14.01,2014-03-17 23:30:00,
2014-03-17 16:46:00,76.3,49.0,29.75,ENE,57,0.0,-999.0,39,-99.99,,,0.00,weatherlink.com 1.10,2014-03-17 23:46:00,
2014-03-17 17:00:00,78.0,50.4,29.76,SW,217,0.0,9.0,38,0.00,,---,0.00,VWS V14.01,2014-03-18 00:00:00,
2014-03-17 17:02:00,76.6,51.0,29.75,SSE,168,0.0,-999.0,41,-99.99,,,0.00,weatherlink.com 1.10,2014-03-18 00:02:00,
2014-03-17 17:19:00,72.5,51.0,29.75,SSW,207,3.0,-999.0,47,-99.99,,,0.00,weatherlink.com 1.10,2014-03-18 00:19:00,
2014-03-17 17:30:00,76.6,49.8,29.75,ENE,59,0.0,7.0,39,0.00,,---,0.00,VWS V14.01,2014-03-18 00:30:00,
2014-03-17 17:35:00,69.7,51.0,29.75,SW,228,10.0,-999.0,52,-99.99,,,0.00,weatherlink.com 1.10,2014-03-18 00:35:00,
2014-03-17 17:53:00,68.9,51.0,29.75,SSW,210,6.0,-999.0,53,-99.99,,,0.00,weatherlink.com 1.10,2014-03-18 00:53:00,
2014-03-17 18:00:00,76.4,49.6,29.75,ENE,65,0.0,7.0,39,0.00,,---,0.00,VWS V14.01,2014-03-18 01:00:00,
2014-03-17 18:10:00,67.7,51.0,29.75,SW,217,4.0,-999.0,56,-99.99,,,0.00,weatherlink.com 1.10,2014-03-18 01:10:00,
2014-03-17 18:26:00,66.5,51.0,29.75,SSW,211,0.0,-999.0,58,-99.99,,,0.00,weatherlink.com 1.10,2014-03-18 01:26:00,
2014-03-17 18:30:00,70.4,51.4,29.75,SW,223,11.0,18.0,51,0.00,,---,0.00,VWS V14.01,2014-03-18 01:30:00,
2014-03-17 18:44:00,65.2,51.0,29.76,SSW,209,0.0,-999.0,60,-99.99,,,0.00,weatherlink.com 1.10,2014-03-18 01:44:00,
2014-03-17 19:00:00,64.2,51.0,29.76,SW,227,0.0,-999.0,62,-99.99,,,0.00,weatherlink.com 1.10,2014-03-18 02:00:00,
2014-03-17 19:17:00,63.2,51.0,29.77,WSW,237,0.0,-999.0,64,-99.99,,,0.00,weatherlink.com 1.10,2014-03-18 02:17:00,
2014-03-17 19:30:00,66.1,50.9,29.76,WSW,254,0.0,13.0,58,0.00,,---,0.00,VWS V14.01,2014-03-18 02:30:00,
2014-03-17 19:34:00,62.2,50.0,29.77,West,261,0.0,-999.0,65,-99.99,,,0.00,weatherlink.com 1.10,2014-03-18 02:34:00,
2014-03-17 19:50:00,61.8,50.0,29.77,West,260,0.0,-999.0,66,-99.99,,,0.00,weatherlink.com 1.10,2014-03-18 02:50:00,
2014-03-17 20:00:00,64.2,50.9,29.76,SW,228,0.0,6.0,62,0.00,,---,0.00,VWS V14.01,2014-03-18 03:00:00,
2014-03-17 20:24:00,60.2,50.0,29.77,West,260,0.0,-999.0,69,-99.99,,,0.00,weatherlink.com 1.10,2014-03-18 03:24:00,
2014-03-17 20:30:00,62.4,50.5,29.77,WSW,237,0.0,4.0,65,0.00,,---,0.00,VWS V14.01,2014-03-18 03:30:00,
2014-03-17 20:41:00,59.9,50.0,29.78,West,260,0.0,-999.0,70,-99.99,,,0.00,weatherlink.com 1.10,2014-03-18 03:41:00,
2014-03-17 20:58:00,59.1,49.0,29.78,West,260,0.0,-999.0,70,-99.99,,,0.00,weatherlink.com 1.10,2014-03-18 03:58:00,
2014-03-17 21:00:00,61.4,50.4,29.77,West,260,0.0,0.0,67,0.00,,---,0.00,VWS V14.01,2014-03-18 04:00:00,
2014-03-17 21:14:00,58.4,49.0,29.78,West,260,0.0,-999.0,71,-99.99,,,0.00,weatherlink.com 1.10,2014-03-18 04:14:00,
2014-03-17 21:30:00,60.0,49.8,29.78,West,260,0.0,0.0,69,0.00,,---,0.00,VWS V14.01,2014-03-18 04:30:00,
2014-03-17 21:32:00,58.1,49.0,29.78,West,260,0.0,-999.0,72,-99.99,,,0.00,weatherlink.com 1.10,2014-03-18 04:32:00,
2014-03-17 21:48:00,57.0,48.0,29.79,West,260,0.0,-999.0,73,-99.99,,,0.00,weatherlink.com 1.10,2014-03-18 04:48:00,
2014-03-17 22:00:00,59.0,49.2,29.78,West,260,0.0,0.0,70,0.00,,---,0.00,VWS V14.01,2014-03-18 05:00:00,
2014-03-17 22:05:00,56.4,48.0,29.79,West,260,0.0,-999.0,74,-99.99,,,0.00,weatherlink.com 1.10,2014-03-18 05:05:00,
2014-03-17 22:22:00,55.7,48.0,29.79,West,260,0.0,-999.0,75,-99.99,,,0.00,weatherlink.com 1.10,2014-03-18 05:22:00,
2014-03-17 22:30:00,58.1,49.1,29.78,West,260,0.0,0.0,72,0.00,,---,0.00,VWS V14.01,2014-03-18 05:30:00,
2014-03-17 22:38:00,55.2,47.0,29.79,West,260,0.0,-999.0,75,-99.99,,,0.00,weatherlink.com 1.10,2014-03-18 05:38:00,
2014-03-17 22:56:00,54.5,47.0,29.79,West,260,0.0,-999.0,76,-99.99,,,0.00,weatherlink.com 1.10,2014-03-18 05:56:00,
2014-03-17 23:00:00,56.5,48.3,29.79,West,260,0.0,0.0,74,0.00,,---,0.00,VWS V14.01,2014-03-18 06:00:00,
2014-03-17 23:12:00,54.1,47.0,29.79,West,260,0.0,-999.0,76,-99.99,,,0.00,weatherlink.com 1.10,2014-03-18 06:12:00,
2014-03-17 23:29:00,53.6,47.0,29.79,West,260,0.0,-999.0,77,-99.99,,,0.00,weatherlink.com 1.10,2014-03-18 06:29:00,
2014-03-17 23:30:00,55.4,47.6,29.79,West,260,0.0,0.0,75,0.00,,---,0.00,VWS V14.01,2014-03-18 06:30:00,
2014-03-17 23:45:00,53.2,46.0,29.79,West,260,0.0,-999.0,77,-99.99,,,0.00,weatherlink.com 1.10,2014-03-18 06:45:00,